createdAt,value
2019-04-04T00:00:28.749Z,5.9
2019-04-04T00:01:35.958Z,5.9
2019-04-04T00:02:43.182Z,5.9
2019-04-04T00:03:52.246Z,5.9
2019-04-04T00:04:59.180Z,5.9
2019-04-04T00:06:06.104Z,5.9
2019-04-04T00:07:13.335Z,5.9
2019-04-04T00:08:20.532Z,5.9
2019-04-04T00:09:27.456Z,5.8
2019-04-04T00:10:35.272Z,5.8
2019-04-04T00:11:42.203Z,5.8
2019-04-04T00:12:49.420Z,5.8
2019-04-04T00:13:56.354Z,5.8
2019-04-04T00:15:03.547Z,5.8
2019-04-04T00:16:10.478Z,5.8
2019-04-04T00:17:17.690Z,5.8
2019-04-04T00:18:27.979Z,5.8
2019-04-04T00:19:34.715Z,5.9
2019-04-04T00:20:42.064Z,5.9
2019-04-04T00:21:49.264Z,5.9
2019-04-04T00:22:56.469Z,5.9
2019-04-04T00:24:03.679Z,5.9
2019-04-04T00:25:11.138Z,5.9
2019-04-04T00:26:18.341Z,5.9
2019-04-04T00:27:25.245Z,5.9
2019-04-04T00:28:31.897Z,5.8
2019-04-04T00:29:38.834Z,5.8
2019-04-04T00:30:48.934Z,5.8
2019-04-04T00:31:56.148Z,5.9
2019-04-04T00:33:03.353Z,5.8
2019-04-04T00:34:13.424Z,5.8
2019-04-04T00:35:20.646Z,5.8
2019-04-04T00:36:27.843Z,5.8
2019-04-04T00:37:36.931Z,5.8
2019-04-04T00:38:44.144Z,5.8
2019-04-04T00:39:51.367Z,5.8
2019-04-04T00:40:58.557Z,5.8
2019-04-04T00:42:05.771Z,5.8
2019-04-04T00:43:12.976Z,5.8
2019-04-04T00:44:23.690Z,5.8
2019-04-04T00:45:30.699Z,5.7
2019-04-04T00:46:37.899Z,5.7
2019-04-04T00:47:45.106Z,5.6
2019-04-04T00:48:52.033Z,5.7
2019-04-04T00:49:59.234Z,5.7
2019-04-04T00:51:08.929Z,5.6
2019-04-04T00:52:16.134Z,5.6
2019-04-04T00:53:23.338Z,5.6
2019-04-04T00:54:30.274Z,5.6
2019-04-04T00:55:37.480Z,5.6
2019-04-04T00:56:44.404Z,5.5
2019-04-04T00:57:51.321Z,5.6
2019-04-04T00:58:58.518Z,5.5
2019-04-04T01:00:05.462Z,5.6
2019-04-04T01:01:12.700Z,5.5
2019-04-04T01:02:19.900Z,5.5
2019-04-04T01:03:30.702Z,5.5
2019-04-04T01:04:37.725Z,5.5
2019-04-04T01:05:44.936Z,5.5
2019-04-04T01:06:51.868Z,5.5
2019-04-04T01:07:59.112Z,5.5
2019-04-04T01:09:13.618Z,5.5
2019-04-04T01:10:21.004Z,5.5
2019-04-04T01:11:28.209Z,5.5
2019-04-04T01:12:35.420Z,5.5
2019-04-04T01:13:42.342Z,5.5
2019-04-04T01:14:49.542Z,5.4
2019-04-04T01:15:56.743Z,5.4
2019-04-04T01:17:05.200Z,5.4
2019-04-04T01:18:12.400Z,5.4
2019-04-04T01:19:19.330Z,5.4
2019-04-04T01:20:26.529Z,5.3
2019-04-04T01:21:33.731Z,5.3
2019-04-04T01:22:40.928Z,5.3
2019-04-04T01:23:48.128Z,5.3
2019-04-04T01:24:55.332Z,5.3
2019-04-04T01:26:04.464Z,5.3
2019-04-04T01:27:11.683Z,5.3
2019-04-04T01:28:18.883Z,5.3
2019-04-04T01:29:26.086Z,5.3
2019-04-04T01:30:33.288Z,5.3
2019-04-04T01:31:40.498Z,5.2
2019-04-04T01:32:49.160Z,5.2
2019-04-04T01:33:55.815Z,5.2
2019-04-04T01:35:03.021Z,5.2
2019-04-04T01:36:09.957Z,5.1
2019-04-04T01:37:16.879Z,5.1
2019-04-04T01:38:24.083Z,5.1
2019-04-04T01:39:32.332Z,5
2019-04-04T22:00:06.538Z,6.2
2019-04-04T22:01:13.739Z,6.2
2019-04-04T22:02:20.669Z,6.2
2019-04-04T22:03:27.871Z,6.2
2019-04-04T22:04:35.077Z,6.2
2019-04-04T22:05:42.313Z,6.2
2019-04-04T22:06:49.521Z,6.1
2019-04-04T22:07:56.174Z,6.1
2019-04-04T22:09:03.373Z,6.2
2019-04-04T22:10:10.580Z,6.2
2019-04-04T22:11:17.780Z,6.2
2019-04-04T22:12:24.978Z,6.2
2019-04-04T22:13:32.178Z,6.2
2019-04-04T22:14:39.382Z,6.1
2019-04-04T22:15:46.593Z,6.2
2019-04-04T22:16:53.799Z,6.2
2019-04-04T22:18:00.452Z,6.2
2019-04-04T22:19:07.389Z,6.2
2019-04-04T22:20:14.596Z,6.2
2019-04-04T22:21:21.795Z,6.2
2019-04-04T22:22:29.000Z,6.2
2019-04-04T22:23:36.208Z,6.2
2019-04-04T22:24:43.127Z,6.2
2019-04-04T22:25:50.329Z,6.3
2019-04-04T22:26:57.535Z,6.2
2019-04-04T22:28:04.468Z,6.3
2019-04-04T22:29:11.658Z,6.3
2019-04-04T22:30:18.869Z,6.2
2019-04-04T22:31:26.068Z,6.2
2019-04-04T22:32:33.272Z,6.2
2019-04-04T22:33:40.471Z,6.2
2019-04-04T22:34:47.403Z,6.2
2019-04-04T22:35:54.608Z,6.2
2019-04-04T22:37:01.545Z,6.2
2019-04-04T22:38:08.739Z,6.2
2019-04-04T22:39:15.941Z,6.1
2019-04-04T22:40:23.141Z,6.1
2019-04-04T22:41:33.396Z,6.1
2019-04-04T22:42:40.594Z,6.1
2019-04-04T22:43:47.794Z,6.1
2019-04-04T22:44:54.993Z,6.1
2019-04-04T22:46:02.194Z,6.1
2019-04-04T22:47:09.117Z,6.1
2019-04-04T22:48:16.314Z,6.1
2019-04-04T22:49:23.513Z,6.1
2019-04-04T22:50:30.441Z,6.1
2019-04-04T22:51:37.366Z,6.1
2019-04-04T22:52:44.018Z,6.2
2019-04-04T22:53:51.221Z,6.2
2019-04-04T22:54:58.149Z,6.1
2019-04-04T22:56:05.345Z,6.2
2019-04-04T22:57:12.277Z,6.2
2019-04-04T22:58:29.141Z,6.2
2019-04-04T22:59:36.346Z,6.1
2019-04-04T23:00:43.550Z,6.2
2019-04-04T23:01:50.747Z,6.2
2019-04-04T23:02:57.962Z,6.2
2019-04-04T23:04:05.175Z,6.1
2019-04-04T23:05:12.388Z,6.1
2019-04-04T23:06:19.588Z,6.1
2019-04-04T23:07:26.788Z,6.2
2019-04-04T23:08:33.994Z,6.1
2019-04-04T23:09:41.200Z,6.1
2019-04-04T23:10:48.128Z,6.1
2019-04-04T23:11:55.328Z,6.1
2019-04-04T23:13:02.580Z,6.1
2019-04-04T23:14:09.505Z,6.1
2019-04-04T23:15:16.454Z,6.1
2019-04-04T23:16:23.656Z,6.1
2019-04-04T23:17:30.590Z,6.1
2019-04-04T23:18:37.794Z,6.1
2019-04-04T23:19:45.215Z,6.1
2019-04-04T23:20:52.424Z,6.1
2019-04-04T23:21:59.349Z,6.1
2019-04-04T23:23:06.562Z,6.2
2019-04-04T23:24:13.765Z,6.1
2019-04-04T23:25:20.969Z,6.1
2019-04-04T23:26:28.179Z,6.1
2019-04-04T23:27:35.099Z,6.1
2019-04-04T23:28:42.298Z,6.1
2019-04-04T23:29:49.497Z,6.1
2019-04-04T23:30:56.426Z,6
2019-04-04T23:32:03.635Z,6
2019-04-04T23:33:10.839Z,6
2019-04-04T23:34:18.070Z,5.9
2019-04-04T23:35:25.267Z,5.9
2019-04-04T23:36:35.790Z,6
2019-04-04T23:37:42.994Z,6
2019-04-04T23:38:50.194Z,6
2019-04-04T23:39:57.397Z,6
2019-04-04T23:41:04.596Z,6
2019-04-04T23:42:11.799Z,6
2019-04-04T23:43:18.994Z,6
2019-04-04T23:44:26.194Z,6
2019-04-04T23:45:33.398Z,6
2019-04-04T23:46:40.604Z,6
2019-04-04T23:47:47.815Z,5.9
2019-04-04T23:48:55.021Z,5.9
2019-04-04T23:50:02.225Z,5.9
2019-04-04T23:51:09.427Z,5.9
2019-04-04T23:52:16.627Z,5.9
2019-04-04T23:53:23.831Z,5.9
2019-04-04T23:54:31.025Z,5.9
2019-04-04T23:55:37.953Z,5.9
2019-04-04T23:56:44.891Z,5.9
2019-04-04T23:57:52.091Z,5.9
2019-04-04T23:58:58.744Z,6
